createdAt,value
2023-05-17T00:01:58.595Z,101008.34
2023-05-17T00:05:00.030Z,101002.91
2023-05-17T00:08:01.521Z,101012.22
2023-05-17T00:11:02.941Z,101012.09
2023-05-17T00:14:04.493Z,101006.16
2023-05-17T00:17:06.087Z,101009.81
2023-05-17T00:20:07.999Z,101008.84
2023-05-17T00:23:09.466Z,101012.22
2023-05-17T00:26:10.896Z,101019.25
2023-05-17T00:29:12.315Z,101028.81
2023-05-17T00:32:13.882Z,101026.97
2023-05-17T00:35:15.506Z,101014.66
2023-05-17T00:38:16.996Z,101020.75
2023-05-17T00:41:18.487Z,101020.88
2023-05-17T00:44:20.799Z,101030.78
2023-05-17T00:47:22.308Z,101024.84
2023-05-17T00:50:26.045Z,101030.28
2023-05-17T00:53:28.660Z,101027.03
2023-05-17T00:56:31.631Z,101034.22
2023-05-17T00:59:33.876Z,101028.00
2023-05-17T01:02:36.619Z,101026.13
2023-05-17T01:05:38.556Z,101029.56
2023-05-17T01:08:39.990Z,101027.81
2023-05-17T01:12:00.377Z,101036.44
2023-05-17T01:15:31.541Z,101036.44
2023-05-17T01:18:46.690Z,101039.94
2023-05-17T01:22:07.713Z,101046.25
2023-05-17T01:26:04.444Z,101042.53
2023-05-17T01:29:09.260Z,101043.09
2023-05-17T01:32:12.812Z,101046.72
2023-05-17T01:35:16.200Z,101050.88
2023-05-17T01:38:17.745Z,101049.16
2023-05-17T01:41:26.633Z,101056.00
2023-05-17T01:44:43.649Z,101060.56
2023-05-17T01:48:15.307Z,101060.72
2023-05-17T01:51:19.839Z,101065.88
2023-05-17T01:54:23.681Z,101073.69
2023-05-17T01:57:29.614Z,101069.19
2023-05-17T02:00:31.645Z,101066.44
2023-05-17T02:03:33.072Z,101077.66
2023-05-17T02:06:34.508Z,101081.16
2023-05-17T02:09:35.977Z,101076.75
2023-05-17T02:12:37.402Z,101078.53
2023-05-17T02:15:38.962Z,101079.53
2023-05-17T02:18:41.296Z,101078.66
2023-05-17T02:21:42.776Z,101082.16
2023-05-17T02:24:44.327Z,101082.16
2023-05-17T02:27:46.695Z,101086.53
2023-05-17T02:30:48.154Z,101087.66
2023-05-17T02:33:49.627Z,101087.72
2023-05-17T02:36:52.327Z,101089.50
2023-05-17T02:39:53.751Z,101097.72
2023-05-17T02:42:55.214Z,101097.84
2023-05-17T02:45:56.641Z,101089.88
2023-05-17T02:48:58.065Z,101088.84
2023-05-17T02:52:00.745Z,101093.13
2023-05-17T02:55:02.536Z,101088.72
2023-05-17T02:58:04.455Z,101090.31
2023-05-17T03:01:06.780Z,101094.75
2023-05-17T03:04:08.778Z,101089.72
2023-05-17T03:07:11.491Z,101090.56
2023-05-17T03:10:14.030Z,101089.59
2023-05-17T03:13:19.120Z,101093.81
2023-05-17T03:16:20.781Z,101097.19
2023-05-17T03:19:24.278Z,101101.53
2023-05-17T03:22:27.091Z,101105.94
2023-05-17T03:25:30.510Z,101104.28
2023-05-17T03:28:32.205Z,101107.06
2023-05-17T03:31:34.557Z,101114.25
2023-05-17T03:34:37.119Z,101118.72
2023-05-17T03:37:38.569Z,101115.94
2023-05-17T03:40:41.310Z,101118.44
2023-05-17T03:43:42.815Z,101121.06
2023-05-17T03:46:46.700Z,101120.28
2023-05-17T03:49:50.656Z,101123.84
2023-05-17T03:52:52.961Z,101134.38
2023-05-17T03:55:54.402Z,101128.22
2023-05-17T03:58:56.305Z,101134.34
2023-05-17T04:01:58.222Z,101143.91
2023-05-17T04:04:59.695Z,101146.56
2023-05-17T04:08:01.373Z,101144.97
2023-05-17T04:11:13.876Z,101143.34
2023-05-17T04:14:17.697Z,101149.44
2023-05-17T04:17:19.737Z,101153.88
2023-05-17T04:20:22.901Z,101148.59
2023-05-17T04:23:24.580Z,101154.72
2023-05-17T04:26:26.811Z,101164.25
2023-05-17T04:29:28.288Z,101164.06
2023-05-17T04:32:30.050Z,101171.13
2023-05-17T04:35:32.667Z,101174.53
2023-05-17T04:38:34.380Z,101169.56
2023-05-17T04:41:36.249Z,101176.88
2023-05-17T04:44:40.098Z,101179.66
2023-05-17T04:47:44.613Z,101183.19
2023-05-17T04:50:47.169Z,101187.56
2023-05-17T04:53:50.251Z,101201.59
2023-05-17T04:56:52.983Z,101192.78
2023-05-17T05:00:15.537Z,101210.06
2023-05-17T05:03:20.012Z,101204.91
2023-05-17T05:06:22.247Z,101204.72
2023-05-17T05:09:23.967Z,101207.16
2023-05-17T05:12:26.142Z,101215.78
2023-05-17T05:15:28.283Z,101222.91
2023-05-17T05:18:34.068Z,101220.28
2023-05-17T05:21:35.886Z,101221.91
2023-05-17T05:24:38.026Z,101235.06
2023-05-17T05:27:39.614Z,101236.94
2023-05-17T05:30:41.579Z,101229.00
2023-05-17T05:33:43.502Z,101239.44
2023-05-17T05:36:45.532Z,101232.47
2023-05-17T05:39:47.109Z,101235.97
2023-05-17T05:42:48.572Z,101245.44
2023-05-17T05:45:50.306Z,101245.13
2023-05-17T05:48:51.996Z,101244.94
2023-05-17T05:51:53.977Z,101244.09
2023-05-17T05:54:55.767Z,101245.81
2023-05-17T05:57:57.521Z,101250.97
2023-05-17T06:00:59.950Z,101252.66
2023-05-17T06:04:01.388Z,101257.81
2023-05-17T06:07:02.904Z,101261.34
2023-05-17T06:10:04.532Z,101262.09
2023-05-17T06:13:06.113Z,101267.22
2023-05-17T06:16:07.587Z,101279.22
2023-05-17T06:19:09.076Z,101271.84
2023-05-17T06:22:10.547Z,101277.97
2023-05-17T06:25:12.040Z,101267.28
2023-05-17T06:28:13.470Z,101272.25
2023-05-17T06:31:14.922Z,101267.69
2023-05-17T06:34:16.405Z,101265.81
2023-05-17T06:37:18.149Z,101265.72
2023-05-17T06:40:19.731Z,101273.38
2023-05-17T06:43:21.887Z,101275.03
2023-05-17T06:46:23.384Z,101282.13
2023-05-17T06:49:24.839Z,101283.94
2023-05-17T06:52:26.261Z,101283.69
2023-05-17T06:55:29.013Z,101283.56
2023-05-17T06:58:32.572Z,101285.88
2023-05-17T07:01:34.643Z,101284.53
2023-05-17T07:04:36.621Z,101300.09
2023-05-17T07:07:38.218Z,101288.09
2023-05-17T07:10:42.806Z,101293.53
2023-05-17T07:13:44.268Z,101289.94
2023-05-17T07:16:45.904Z,101295.72
2023-05-17T07:19:50.867Z,101297.03
2023-05-17T07:22:52.529Z,101298.44
2023-05-17T07:25:54.000Z,101300.41
2023-05-17T07:28:55.473Z,101293.91
2023-05-17T07:31:57.156Z,101307.56
2023-05-17T07:34:58.790Z,101302.56
2023-05-17T07:38:00.236Z,101299.34
2023-05-17T07:41:02.110Z,101293.47
2023-05-17T07:44:03.545Z,101298.50
2023-05-17T07:47:05.286Z,101297.06
2023-05-17T07:50:07.539Z,101301.50
2023-05-17T07:53:08.966Z,101301.00
2023-05-17T07:56:10.456Z,101298.22
2023-05-17T07:59:11.870Z,101295.63
2023-05-17T08:02:13.398Z,101288.28
2023-05-17T08:05:14.897Z,101293.31
2023-05-17T08:08:16.318Z,101297.22
2023-05-17T08:11:18.279Z,101299.84
2023-05-17T08:14:23.461Z,101302.66
2023-05-17T08:17:24.989Z,101299.38
2023-05-17T08:20:26.509Z,101305.53
2023-05-17T08:23:27.947Z,101302.09
2023-05-17T08:26:29.517Z,101295.38
2023-05-17T08:29:31.009Z,101295.28
2023-05-17T08:32:32.690Z,101298.06
2023-05-17T08:35:34.313Z,101297.13
2023-05-17T08:38:35.911Z,101296.84
2023-05-17T08:41:37.385Z,101283.78
2023-05-17T08:44:38.946Z,101293.16
2023-05-17T08:47:43.060Z,101294.13
2023-05-17T08:50:46.656Z,101294.50
2023-05-17T08:53:50.403Z,101289.19
2023-05-17T08:57:00.150Z,101283.38
2023-05-17T09:00:01.782Z,101290.72
2023-05-17T09:03:03.382Z,101290.28
2023-05-17T09:06:05.573Z,101290.56
2023-05-17T09:09:07.468Z,101293.78
2023-05-17T09:12:09.061Z,101290.00
2023-05-17T09:15:15.124Z,101294.72
2023-05-17T09:18:19.416Z,101288.06
2023-05-17T09:21:22.770Z,101288.78
2023-05-17T09:24:30.198Z,101292.66
2023-05-17T09:27:32.337Z,101291.75
2023-05-17T09:30:37.997Z,101285.28
2023-05-17T09:33:46.842Z,101292.25
2023-05-17T09:36:48.406Z,101299.06
2023-05-17T09:39:49.882Z,101298.69
2023-05-17T09:42:51.650Z,101294.16
2023-05-17T09:45:59.691Z,101294.16
2023-05-17T09:49:03.012Z,101293.16
2023-05-17T09:52:08.262Z,101297.88
2023-05-17T09:55:11.683Z,101296.69
2023-05-17T09:58:13.892Z,101295.97
2023-05-17T10:01:16.502Z,101300.50
2023-05-17T10:04:23.104Z,101298.56
2023-05-17T10:07:26.483Z,101304.03
2023-05-17T10:10:29.930Z,101299.53
2023-05-17T10:13:35.988Z,101303.97
2023-05-17T10:16:38.505Z,101294.63
2023-05-17T10:19:40.645Z,101289.88
2023-05-17T10:22:42.585Z,101283.63
2023-05-17T10:25:44.716Z,101296.53
2023-05-17T10:28:47.888Z,101293.19
2023-05-17T10:31:52.669Z,101290.00
2023-05-17T10:35:06.567Z,101294.22
2023-05-17T10:38:13.556Z,101296.22
2023-05-17T10:41:18.199Z,101302.09
2023-05-17T10:44:19.933Z,101293.56
2023-05-17T10:47:22.242Z,101296.78
2023-05-17T10:50:26.208Z,101306.13
2023-05-17T10:53:27.883Z,101301.66
2023-05-17T10:56:33.353Z,101300.78
2023-05-17T10:59:35.607Z,101305.00
2023-05-17T11:02:42.402Z,101305.56
2023-05-17T11:06:03.733Z,101304.56
2023-05-17T11:09:16.423Z,101308.53
2023-05-17T11:12:53.855Z,101299.81
2023-05-17T11:16:07.774Z,101301.41
2023-05-17T11:19:11.973Z,101303.09
2023-05-17T11:22:16.251Z,101304.28
2023-05-17T11:25:19.101Z,101299.91
2023-05-17T11:28:22.307Z,101290.53
2023-05-17T11:31:32.021Z,101305.16
2023-05-17T11:34:33.834Z,101298.88
2023-05-17T11:37:35.545Z,101300.78
2023-05-17T11:40:37.697Z,101300.22
2023-05-17T11:43:46.336Z,101303.66
2023-05-17T11:46:48.138Z,101304.13
2023-05-17T11:49:53.696Z,101304.06
2023-05-17T11:52:58.248Z,101288.88
2023-05-17T11:56:04.255Z,101283.16
2023-05-17T11:59:05.806Z,101288.31
2023-05-17T12:02:07.491Z,101276.19
2023-05-17T12:05:09.338Z,101279.97
2023-05-17T12:08:11.730Z,101278.25
2023-05-17T12:11:17.409Z,101271.28
2023-05-17T12:14:20.234Z,101270.88
2023-05-17T12:17:28.864Z,101279.28
2023-05-17T12:20:33.135Z,101259.66
2023-05-17T12:23:41.027Z,101259.41
2023-05-17T12:26:46.807Z,101260.41
2023-05-17T12:29:48.230Z,101267.75
2023-05-17T12:32:49.978Z,101250.41
2023-05-17T12:35:51.919Z,101254.16
2023-05-17T12:38:53.824Z,101257.28
2023-05-17T12:41:55.401Z,101254.16
2023-05-17T12:44:59.444Z,101255.97
2023-05-17T12:48:00.944Z,101257.50
2023-05-17T12:51:14.036Z,101255.47
2023-05-17T12:54:26.686Z,101250.16
2023-05-17T12:57:28.101Z,101237.72
2023-05-17T13:00:29.798Z,101240.38
2023-05-17T13:03:31.927Z,101230.78
2023-05-17T13:06:54.119Z,101224.69
2023-05-17T13:09:55.760Z,101229.75
2023-05-17T13:12:58.489Z,101222.78
2023-05-17T13:15:59.936Z,101215.88
2023-05-17T13:19:01.515Z,101206.16
2023-05-17T13:22:04.179Z,101214.81
2023-05-17T13:25:06.390Z,101211.38
2023-05-17T13:28:07.791Z,101209.09
2023-05-17T13:31:09.289Z,101202.19
2023-05-17T13:34:11.319Z,101200.06
2023-05-17T13:37:13.115Z,101205.84
2023-05-17T13:40:15.053Z,101196.47
2023-05-17T13:43:16.624Z,101194.53
2023-05-17T13:46:18.033Z,101190.13
2023-05-17T13:49:19.575Z,101186.94
2023-05-17T13:52:22.941Z,101181.66
2023-05-17T13:55:24.752Z,101182.00
2023-05-17T13:58:26.643Z,101186.03
2023-05-17T14:01:28.105Z,101193.56
2023-05-17T14:04:29.565Z,101186.66
2023-05-17T14:07:30.999Z,101183.78
2023-05-17T14:10:32.603Z,101179.38
2023-05-17T14:13:34.011Z,101187.72
2023-05-17T14:16:35.999Z,101179.53
2023-05-17T14:19:37.613Z,101180.88
2023-05-17T14:22:39.082Z,101174.19
2023-05-17T14:25:43.593Z,101174.00
2023-05-17T14:28:45.008Z,101173.41
2023-05-17T14:31:46.590Z,101178.28
2023-05-17T14:34:48.116Z,101173.09
2023-05-17T14:37:49.560Z,101173.81
2023-05-17T14:40:51.025Z,101168.16
2023-05-17T14:46:54.173Z,101160.28
2023-05-17T14:49:55.706Z,101154.53
2023-05-17T14:52:57.114Z,101167.13
2023-05-17T14:56:01.865Z,101165.88
2023-05-17T14:59:03.341Z,101159.44
2023-05-17T15:02:05.222Z,101151.72
2023-05-17T15:05:07.167Z,101151.81
2023-05-17T15:08:08.799Z,101148.09
2023-05-17T15:11:10.675Z,101153.97
2023-05-17T15:14:12.397Z,101151.53
2023-05-17T15:17:13.827Z,101146.19
2023-05-17T15:20:15.620Z,101145.06
2023-05-17T15:23:17.156Z,101147.38
2023-05-17T15:26:18.635Z,101136.25
2023-05-17T15:29:20.119Z,101142.97
2023-05-17T15:32:21.605Z,101139.06
2023-05-17T15:35:23.157Z,101143.91
2023-05-17T15:38:24.577Z,101147.72
2023-05-17T15:41:29.804Z,101133.78
2023-05-17T15:44:31.652Z,101137.47
2023-05-17T15:50:38.113Z,101136.88
2023-05-17T15:53:39.558Z,101140.31
2023-05-17T15:56:41.926Z,101130.06
2023-05-17T15:59:43.498Z,101137.88
2023-05-17T16:02:44.982Z,101129.09
2023-05-17T16:05:46.507Z,101139.28
2023-05-17T16:08:47.995Z,101135.66
2023-05-17T16:11:49.422Z,101135.66
2023-05-17T16:14:50.852Z,101130.97
2023-05-17T16:17:52.436Z,101130.41
2023-05-17T16:20:58.593Z,101124.84
2023-05-17T16:23:59.993Z,101128.28
2023-05-17T16:27:03.169Z,101130.56
2023-05-17T16:30:06.673Z,101131.69
2023-05-17T16:33:09.135Z,101130.66
2023-05-17T16:36:12.278Z,101127.63
2023-05-17T16:39:13.831Z,101132.66
2023-05-17T16:42:15.530Z,101139.38
2023-05-17T16:45:16.965Z,101142.03
2023-05-17T16:48:18.427Z,101146.38
2023-05-17T16:51:19.871Z,101146.28
2023-05-17T16:54:21.293Z,101142.22
2023-05-17T16:57:22.715Z,101143.88
2023-05-17T17:00:24.271Z,101144.25
2023-05-17T17:03:25.936Z,101139.78
2023-05-17T17:06:27.560Z,101140.31
2023-05-17T17:09:29.018Z,101138.53
2023-05-17T17:12:30.439Z,101134.63
2023-05-17T17:15:32.178Z,101137.03
2023-05-17T17:18:33.879Z,101133.94
2023-05-17T17:21:39.162Z,101141.00
2023-05-17T17:24:40.974Z,101144.78
2023-05-17T17:27:42.464Z,101142.06
2023-05-17T17:30:43.929Z,101151.56
2023-05-17T17:33:45.496Z,101141.25
2023-05-17T17:36:46.965Z,101147.84
2023-05-17T17:39:48.476Z,101152.06
2023-05-17T17:42:49.962Z,101149.25
2023-05-17T17:45:51.431Z,101150.97
2023-05-17T17:48:54.425Z,101150.41
2023-05-17T17:51:58.171Z,101148.28
2023-05-17T17:54:59.658Z,101144.88
2023-05-17T17:58:01.184Z,101151.25
2023-05-17T18:01:03.447Z,101155.03
2023-05-17T18:04:05.572Z,101162.44
2023-05-17T18:07:07.194Z,101157.56
2023-05-17T18:10:09.040Z,101162.72
2023-05-17T18:13:10.627Z,101161.34
2023-05-17T18:16:12.770Z,101163.38
2023-05-17T18:19:14.375Z,101166.78
2023-05-17T18:22:20.896Z,101169.72
2023-05-17T18:25:23.289Z,101172.31
2023-05-17T18:28:38.272Z,101169.38
2023-05-17T18:31:43.931Z,101169.63
2023-05-17T18:34:45.651Z,101165.94
2023-05-17T18:37:47.154Z,101176.59
2023-05-17T18:40:49.080Z,101179.19
2023-05-17T18:43:51.588Z,101174.41
2023-05-17T18:46:54.195Z,101165.81
2023-05-17T18:49:55.823Z,101169.75
2023-05-17T18:52:57.387Z,101169.31
2023-05-17T18:56:02.531Z,101169.69
2023-05-17T18:59:04.976Z,101169.69
2023-05-17T19:02:07.125Z,101174.03
2023-05-17T19:05:08.821Z,101179.63
2023-05-17T19:08:10.461Z,101181.88
2023-05-17T19:11:11.887Z,101181.88
2023-05-17T19:14:14.712Z,101188.28
2023-05-17T19:17:17.446Z,101197.56
2023-05-17T19:20:19.218Z,101189.44
2023-05-17T19:23:21.526Z,101197.44
2023-05-17T19:26:22.980Z,101204.63
2023-05-17T19:29:27.123Z,101196.66
2023-05-17T19:32:30.168Z,101210.28
2023-05-17T19:35:31.706Z,101205.16
2023-05-17T19:38:33.288Z,101204.50
2023-05-17T19:41:34.967Z,101209.97
2023-05-17T19:44:36.435Z,101213.84
2023-05-17T19:47:38.957Z,101209.28
2023-05-17T19:50:43.953Z,101222.38
2023-05-17T19:53:53.072Z,101222.91
2023-05-17T19:56:56.206Z,101213.94
2023-05-17T19:59:57.653Z,101218.69
2023-05-17T20:02:59.400Z,101227.38
2023-05-17T20:06:01.017Z,101224.03
2023-05-17T20:09:02.476Z,101219.72
2023-05-17T20:12:04.400Z,101225.16
2023-05-17T20:15:06.727Z,101224.22
2023-05-17T20:18:09.188Z,101219.97
2023-05-17T20:21:15.083Z,101215.00
2023-05-17T20:24:16.674Z,101218.69
2023-05-17T20:27:18.312Z,101230.69
2023-05-17T20:30:19.802Z,101234.34
2023-05-17T20:33:26.287Z,101235.88
2023-05-17T20:36:27.754Z,101239.84
2023-05-17T20:39:30.766Z,101233.13
2023-05-17T20:42:32.562Z,101234.97
2023-05-17T20:45:34.151Z,101245.56
2023-05-17T20:48:36.333Z,101236.19
2023-05-17T20:51:37.927Z,101243.63
2023-05-17T20:54:39.359Z,101241.00
2023-05-17T20:57:41.832Z,101240.84
2023-05-17T21:00:43.361Z,101234.41
2023-05-17T21:03:45.843Z,101241.66
2023-05-17T21:06:47.525Z,101243.38
2023-05-17T21:09:48.996Z,101251.41
2023-05-17T21:12:51.306Z,101253.75
2023-05-17T21:15:54.113Z,101251.00
2023-05-17T21:18:55.663Z,101251.84
2023-05-17T21:21:57.140Z,101251.19
2023-05-17T21:24:58.569Z,101254.88
2023-05-17T21:27:59.995Z,101256.50
2023-05-17T21:31:01.727Z,101255.34
2023-05-17T21:34:03.919Z,101257.91
2023-05-17T21:37:05.533Z,101258.13
2023-05-17T21:40:08.073Z,101260.06
2023-05-17T21:43:12.271Z,101258.56
2023-05-17T21:46:13.714Z,101254.25
2023-05-17T21:49:15.389Z,101250.88
2023-05-17T21:52:17.384Z,101246.50
2023-05-17T21:55:18.806Z,101239.81
2023-05-17T21:58:21.226Z,101243.47
2023-05-17T22:01:24.037Z,101239.84
2023-05-17T22:04:26.215Z,101243.47
2023-05-17T22:07:27.693Z,101242.75
2023-05-17T22:10:30.524Z,101239.03
2023-05-17T22:13:32.564Z,101240.78
2023-05-17T22:16:35.770Z,101241.63
2023-05-17T22:19:40.301Z,101244.16
2023-05-17T22:22:41.855Z,101245.94
2023-05-17T22:25:43.468Z,101254.81
2023-05-17T22:28:45.122Z,101251.50
2023-05-17T22:31:47.282Z,101249.06
2023-05-17T22:34:49.805Z,101243.97
2023-05-17T22:37:51.867Z,101246.69
2023-05-17T22:40:53.316Z,101244.31
2023-05-17T22:43:54.744Z,101241.66
2023-05-17T22:46:57.664Z,101246.38
2023-05-17T22:50:00.626Z,101246.50
2023-05-17T22:53:02.072Z,101247.31
2023-05-17T22:56:03.637Z,101245.53
2023-05-17T22:59:05.054Z,101250.06
2023-05-17T23:02:06.694Z,101246.88
2023-05-17T23:05:08.601Z,101245.84
2023-05-17T23:08:10.035Z,101239.72
2023-05-17T23:11:11.469Z,101249.47
2023-05-17T23:14:13.934Z,101247.09
2023-05-17T23:17:15.620Z,101243.81
2023-05-17T23:20:17.318Z,101244.66
2023-05-17T23:23:19.180Z,101243.75
2023-05-17T23:26:22.002Z,101242.94
2023-05-17T23:29:23.883Z,101234.94
2023-05-17T23:32:25.429Z,101243.81
2023-05-17T23:35:26.959Z,101245.78
2023-05-17T23:38:28.597Z,101245.53
2023-05-17T23:41:30.510Z,101236.44
2023-05-17T23:44:33.313Z,101242.47
2023-05-17T23:47:34.875Z,101233.13
2023-05-17T23:50:37.063Z,101229.75
2023-05-17T23:53:38.463Z,101235.97
2023-05-17T23:56:39.896Z,101230.81
2023-05-17T23:59:41.998Z,101232.78
